SSA weather

Public forecast

Using degrees Celsius for public forecast. Weather courtesy of forecast.io.

Current aviation weather report (METAR) for Deputado Luiz Eduardo Magalhães International Airport

Retrieved 2020/08/11 06:00 UTC (20 minutes ago):

SBSV 110600Z 09006KT 9999 SCT020 SCT060 23/21 Q1016

Aviation forecast (TAF) for Deputado Luiz Eduardo Magalhães International Airport

Forecast is more than 6 hours old.

Retrieved 2020-08-11 00:00 UTC (6 hours ago):

TAF SBSV 102100Z 1100/1124 10010KT 8000 SHRA SCT020 FEW025TCU TN22/1109Z TX30/1118Z PROB40 TEMPO 1100/1102 9999 NSW SCT020 BECMG 1118/1120 9999 NSW SCT020 RMK PDP